sensor_id;sensor_type;location;lat;lon;timestamp;pressure;altitude;pressure_sealevel;temperature;humidity
31011;BME280;26395;53.412;19.598;2023-02-04T00:10:55;100248.92;;;1.79;91.60
31011;BME280;26395;53.412;19.598;2023-02-04T00:25:58;100303.80;;;1.78;91.49
31011;BME280;26395;53.412;19.598;2023-02-04T00:41:02;100356.72;;;1.72;90.42
31011;BME280;26395;53.412;19.598;2023-02-04T00:56:06;100408.64;;;1.68;90.31
31011;BME280;26395;53.412;19.598;2023-02-04T01:11:12;100453.13;;;1.65;90.18
31011;BME280;26395;53.412;19.598;2023-02-04T01:26:16;100491.69;;;1.44;89.94
31011;BME280;26395;53.412;19.598;2023-02-04T01:41:20;100534.98;;;1.28;90.17
31011;BME280;26395;53.412;19.598;2023-02-04T01:56:25;100589.34;;;1.22;89.74
31011;BME280;26395;53.412;19.598;2023-02-04T02:11:31;100649.80;;;1.10;89.69
31011;BME280;26395;53.412;19.598;2023-02-04T02:26:35;100689.52;;;1.08;89.43
31011;BME280;26395;53.412;19.598;2023-02-04T02:41:38;100730.69;;;1.17;89.16
31011;BME280;26395;53.412;19.598;2023-02-04T02:56:42;100775.73;;;1.10;88.79
31011;BME280;26395;53.412;19.598;2023-02-04T03:11:45;100817.29;;;0.92;88.37
31011;BME280;26395;53.412;19.598;2023-02-04T03:26:49;100858.30;;;0.74;88.09
31011;BME280;26395;53.412;19.598;2023-02-04T03:41:52;100908.05;;;0.65;87.01
31011;BME280;26395;53.412;19.598;2023-02-04T03:56:55;100973.76;;;0.51;86.59
31011;BME280;26395;53.412;19.598;2023-02-04T04:11:59;101025.21;;;0.36;85.83
31011;BME280;26395;53.412;19.598;2023-02-04T04:27:03;101045.08;;;0.19;84.94
31011;BME280;26395;53.412;19.598;2023-02-04T04:42:06;101072.02;;;0.04;84.30
31011;BME280;26395;53.412;19.598;2023-02-04T04:57:09;101107.70;;;-0.15;83.71
31011;BME280;26395;53.412;19.598;2023-02-04T05:12:12;101144.93;;;-0.30;83.46
31011;BME280;26395;53.412;19.598;2023-02-04T05:27:16;101182.20;;;-0.23;83.88
31011;BME280;26395;53.412;19.598;2023-02-04T05:42:19;101217.44;;;-0.04;83.93
31011;BME280;26395;53.412;19.598;2023-02-04T05:57:22;101266.20;;;-0.07;83.32
31011;BME280;26395;53.412;19.598;2023-02-04T06:12:25;101280.85;;;0.04;83.24
31011;BME280;26395;53.412;19.598;2023-02-04T06:27:29;101305.05;;;-0.12;82.78
31011;BME280;26395;53.412;19.598;2023-02-04T06:42:32;101331.54;;;-0.06;82.92
31011;BME280;26395;53.412;19.598;2023-02-04T06:57:35;101349.73;;;0.07;82.65
31011;BME280;26395;53.412;19.598;2023-02-04T07:12:38;101380.20;;;0.39;83.01
31011;BME280;26395;53.412;19.598;2023-02-04T07:27:42;101409.81;;;0.64;83.23
31011;BME280;26395;53.412;19.598;2023-02-04T07:42:45;101423.98;;;0.92;84.82
31011;BME280;26395;53.412;19.598;2023-02-04T07:57:51;101442.01;;;1.05;84.82
31011;BME280;26395;53.412;19.598;2023-02-04T08:12:54;101467.90;;;1.27;84.93
31011;BME280;26395;53.412;19.598;2023-02-04T08:27:57;101482.14;;;1.41;85.21
31011;BME280;26395;53.412;19.598;2023-02-04T08:43:01;101507.77;;;1.54;84.96
31011;BME280;26395;53.412;19.598;2023-02-04T08:58:06;101533.89;;;1.85;84.81
31011;BME280;26395;53.412;19.598;2023-02-04T09:13:10;101549.99;;;2.37;84.76
31011;BME280;26395;53.412;19.598;2023-02-04T09:28:14;101564.85;;;2.47;84.46
31011;BME280;26395;53.412;19.598;2023-02-04T09:43:23;101575.72;;;3.16;84.83
31011;BME280;26395;53.412;19.598;2023-02-04T09:58:30;101582.36;;;4.11;82.83
31011;BME280;26395;53.412;19.598;2023-02-04T10:13:50;101580.70;;;3.88;82.38
31011;BME280;26395;53.412;19.598;2023-02-04T10:44:12;101608.97;;;3.77;82.23
31011;BME280;26395;53.412;19.598;2023-02-04T10:59:22;101628.65;;;3.92;81.84
31011;BME280;26395;53.412;19.598;2023-02-04T11:14:29;101640.29;;;3.63;82.32
31011;BME280;26395;53.412;19.598;2023-02-04T11:29:36;101639.21;;;3.64;82.28
31011;BME280;26395;53.412;19.598;2023-02-04T11:44:51;101649.55;;;4.07;82.29
31011;BME280;26395;53.412;19.598;2023-02-04T11:59:55;101662.48;;;4.03;81.80
31011;BME280;26395;53.412;19.598;2023-02-04T12:15:08;101670.33;;;4.33;80.79
31011;BME280;26395;53.412;19.598;2023-02-04T12:30:15;101688.39;;;4.71;80.79
31011;BME280;26395;53.412;19.598;2023-02-04T12:45:20;101702.80;;;4.40;80.34
31011;BME280;26395;53.412;19.598;2023-02-04T13:00:24;101698.48;;;4.22;79.75
31011;BME280;26395;53.412;19.598;2023-02-04T13:15:29;101717.18;;;5.92;79.24
31011;BME280;26395;53.412;19.598;2023-02-04T13:30:33;101725.98;;;7.31;77.98
31011;BME280;26395;53.412;19.598;2023-02-04T13:45:36;101751.13;;;7.99;72.56
31011;BME280;26395;53.412;19.598;2023-02-04T14:00:40;101764.73;;;5.61;72.49
31011;BME280;26395;53.412;19.598;2023-02-04T14:15:43;101775.51;;;6.79;70.68
31011;BME280;26395;53.412;19.598;2023-02-04T14:30:46;101783.67;;;7.70;66.92
31011;BME280;26395;53.412;19.598;2023-02-04T14:45:50;101792.69;;;4.54;68.50
31011;BME280;26395;53.412;19.598;2023-02-04T15:00:53;101804.34;;;3.57;69.02
31011;BME280;26395;53.412;19.598;2023-02-04T15:15:57;101820.50;;;3.08;70.03
31011;BME280;26395;53.412;19.598;2023-02-04T15:31:00;101841.84;;;2.83;71.23
31011;BME280;26395;53.412;19.598;2023-02-04T15:46:04;101852.27;;;2.46;72.55
31011;BME280;26395;53.412;19.598;2023-02-04T16:01:07;101871.10;;;2.21;73.50
31011;BME280;26395;53.412;19.598;2023-02-04T16:16:10;101889.44;;;2.00;73.37
31011;BME280;26395;53.412;19.598;2023-02-04T16:31:14;101917.70;;;1.75;73.73
31011;BME280;26395;53.412;19.598;2023-02-04T16:46:17;101930.55;;;1.64;73.62
31011;BME280;26395;53.412;19.598;2023-02-04T17:01:21;101939.92;;;1.62;73.81
31011;BME280;26395;53.412;19.598;2023-02-04T17:16:25;101966.16;;;1.38;74.65
31011;BME280;26395;53.412;19.598;2023-02-04T17:31:29;101966.16;;;1.38;75.68
31011;BME280;26395;53.412;19.598;2023-02-04T17:46:33;101972.52;;;1.40;75.96
31011;BME280;26395;53.412;19.598;2023-02-04T18:01:39;101998.22;;;1.47;76.63
31011;BME280;26395;53.412;19.598;2023-02-04T18:16:45;102012.30;;;1.49;76.91
31011;BME280;26395;53.412;19.598;2023-02-04T18:31:52;102022.84;;;1.48;76.98
31011;BME280;26395;53.412;19.598;2023-02-04T18:46:56;102046.50;;;1.46;76.87
31011;BME280;26395;53.412;19.598;2023-02-04T19:01:59;102064.04;;;1.40;77.44
31011;BME280;26395;53.412;19.598;2023-02-04T19:32:22;102101.91;;;0.81;77.36
31011;BME280;26395;53.412;19.598;2023-02-04T19:47:28;102123.54;;;0.45;77.38
31011;BME280;26395;53.412;19.598;2023-02-04T20:02:35;102149.12;;;0.16;76.96
31011;BME280;26395;53.412;19.598;2023-02-04T20:17:46;102171.23;;;-0.15;76.99
31011;BME280;26395;53.412;19.598;2023-02-04T20:32:54;102182.07;;;-0.44;76.84
31011;BME280;26395;53.412;19.598;2023-02-04T20:53:54;102210.73;;;-0.73;76.65
31011;BME280;26395;53.412;19.598;2023-02-04T21:09:01;102239.66;;;-0.96;76.29
31011;BME280;26395;53.412;19.598;2023-02-04T21:24:07;102269.23;;;-1.22;76.01
31011;BME280;26395;53.412;19.598;2023-02-04T21:39:10;102281.31;;;-1.33;75.71
31011;BME280;26395;53.412;19.598;2023-02-04T21:54:15;102295.71;;;-1.59;75.33
31011;BME280;26395;53.412;19.598;2023-02-04T22:09:18;102310.77;;;-1.88;75.45
31011;BME280;26395;53.412;19.598;2023-02-04T22:24:22;102319.78;;;-2.21;75.38
31011;BME280;26395;53.412;19.598;2023-02-04T22:39:27;102325.98;;;-2.56;75.03
31011;BME280;26395;53.412;19.598;2023-02-04T22:54:31;102342.43;;;-2.85;74.91
31011;BME280;26395;53.412;19.598;2023-02-04T23:09:34;102356.93;;;-3.19;74.63
31011;BME280;26395;53.412;19.598;2023-02-04T23:24:39;102350.34;;;-3.51;74.55
31011;BME280;26395;53.412;19.598;2023-02-04T23:39:42;102339.55;;;-3.55;74.46
31011;BME280;26395;53.412;19.598;2023-02-04T23:54:51;102343.22;;;-3.78;74.05
